createdAt,value
2023-05-09T00:01:13.242Z,92.78
2023-05-09T00:03:40.524Z,92.84
2023-05-09T00:06:07.268Z,93.03
2023-05-09T00:08:33.686Z,93.49
2023-05-09T00:11:00.846Z,93.26
2023-05-09T00:13:27.577Z,93.46
2023-05-09T00:15:54.061Z,93.62
2023-05-09T00:18:22.016Z,93.81
2023-05-09T00:20:50.038Z,93.70
2023-05-09T00:23:16.782Z,94.06
2023-05-09T00:25:43.399Z,94.21
2023-05-09T00:28:09.852Z,94.06
2023-05-09T00:30:36.774Z,94.13
2023-05-09T00:33:03.301Z,94.17
2023-05-09T00:35:32.124Z,94.26
2023-05-09T00:37:59.371Z,94.44
2023-05-09T00:40:25.998Z,94.59
2023-05-09T00:42:52.456Z,94.79
2023-05-09T00:45:18.909Z,95.31
2023-05-09T00:47:45.580Z,95.65
2023-05-09T00:50:12.109Z,95.95
2023-05-09T00:52:38.959Z,96.07
2023-05-09T00:55:08.207Z,96.14
2023-05-09T00:57:35.063Z,95.89
2023-05-09T01:00:01.760Z,95.73
2023-05-09T01:02:28.641Z,95.68
2023-05-09T01:04:55.928Z,95.61
2023-05-09T01:07:37.579Z,95.22
2023-05-09T01:10:16.894Z,95.34
2023-05-09T01:12:56.029Z,95.18
2023-05-09T01:15:39.339Z,95.27
2023-05-09T01:18:43.149Z,95.37
2023-05-09T01:21:20.556Z,95.49
2023-05-09T01:23:59.331Z,95.46
2023-05-09T01:26:43.281Z,95.48
2023-05-09T01:29:34.476Z,95.69
2023-05-09T01:32:07.239Z,95.98
2023-05-09T01:34:35.304Z,95.95
2023-05-09T01:37:05.096Z,96.01
2023-05-09T01:39:33.819Z,96.33
2023-05-09T01:42:02.600Z,96.31
2023-05-09T01:44:42.992Z,96.53
2023-05-09T01:47:10.660Z,96.96
2023-05-09T01:49:38.547Z,97.25
2023-05-09T01:52:11.275Z,97.20
2023-05-09T01:54:40.079Z,97.11
2023-05-09T01:57:08.013Z,97.24
2023-05-09T01:59:35.935Z,97.09
2023-05-09T02:02:07.758Z,97.16
2023-05-09T02:04:35.732Z,97.47
2023-05-09T02:07:05.199Z,97.29
2023-05-09T02:09:31.869Z,97.33
2023-05-09T02:11:58.303Z,97.59
2023-05-09T02:14:24.725Z,97.44
2023-05-09T02:16:51.302Z,97.86
2023-05-09T02:19:17.819Z,97.71
2023-05-09T02:21:44.436Z,97.62
2023-05-09T02:24:11.224Z,98.07
2023-05-09T02:26:39.125Z,97.89
2023-05-09T02:29:07.596Z,98.13
2023-05-09T02:31:35.376Z,98.18
2023-05-09T02:34:04.699Z,98.24
2023-05-09T02:36:32.626Z,98.08
2023-05-09T02:39:01.165Z,98.17
2023-05-09T02:41:30.034Z,98.33
2023-05-09T02:43:56.454Z,98.41
2023-05-09T02:46:23.025Z,98.73
2023-05-09T02:48:49.444Z,99.07
2023-05-09T02:51:15.990Z,98.96
2023-05-09T02:53:42.512Z,98.98
2023-05-09T02:56:10.745Z,99.17
2023-05-09T02:58:37.158Z,99.09
2023-05-09T03:01:04.069Z,99.05
2023-05-09T03:03:34.201Z,99.29
2023-05-09T03:06:03.273Z,99.41
2023-05-09T03:08:29.992Z,99.65
2023-05-09T03:10:57.053Z,100.00
2023-05-09T03:13:23.760Z,100.00
2023-05-09T03:15:50.297Z,100.00
2023-05-09T03:18:17.302Z,100.00
2023-05-09T03:20:43.728Z,100.00
2023-05-09T03:23:10.357Z,100.00
2023-05-09T03:25:37.039Z,100.00
2023-05-09T03:28:05.664Z,100.00
2023-05-09T03:30:32.079Z,100.00
2023-05-09T03:32:59.056Z,100.00
2023-05-09T03:35:25.650Z,100.00
2023-05-09T03:37:53.780Z,100.00
2023-05-09T03:40:20.556Z,100.00
2023-05-09T03:42:53.369Z,100.00
2023-05-09T03:45:20.027Z,100.00
2023-05-09T03:47:47.309Z,100.00
2023-05-09T03:50:15.146Z,100.00
2023-05-09T03:52:43.161Z,100.00
2023-05-09T03:55:10.778Z,100.00
2023-05-09T03:57:37.329Z,100.00
2023-05-09T04:00:06.620Z,99.88
2023-05-09T04:02:40.492Z,99.57
2023-05-09T04:05:08.559Z,99.52
2023-05-09T04:07:37.297Z,99.44
2023-05-09T04:10:05.128Z,99.64
2023-05-09T04:12:32.009Z,99.81
2023-05-09T04:14:58.676Z,99.86
2023-05-09T04:17:25.322Z,99.94
2023-05-09T04:19:52.217Z,100.00
2023-05-09T04:22:19.123Z,100.00
2023-05-09T04:24:45.626Z,100.00
2023-05-09T04:27:12.060Z,100.00
2023-05-09T04:29:39.111Z,100.00
2023-05-09T04:32:05.654Z,100.00
2023-05-09T04:34:32.333Z,100.00
2023-05-09T04:37:03.776Z,100.00
2023-05-09T04:39:30.934Z,100.00
2023-05-09T04:42:05.980Z,100.00
2023-05-09T04:44:33.207Z,100.00
2023-05-09T04:47:00.221Z,100.00
2023-05-09T04:49:27.605Z,100.00
2023-05-09T04:51:54.057Z,100.00
2023-05-09T04:54:21.273Z,100.00
2023-05-09T04:56:50.845Z,100.00
2023-05-09T04:59:18.056Z,100.00
2023-05-09T05:01:45.787Z,100.00
2023-05-09T05:04:13.035Z,100.00
2023-05-09T05:06:40.285Z,100.00
2023-05-09T05:09:06.988Z,100.00
2023-05-09T05:11:33.448Z,100.00
2023-05-09T05:14:00.077Z,100.00
2023-05-09T05:16:26.765Z,100.00
2023-05-09T05:18:53.266Z,100.00
2023-05-09T05:21:20.805Z,100.00
2023-05-09T05:23:48.281Z,100.00
2023-05-09T05:26:15.601Z,100.00
2023-05-09T05:28:42.358Z,100.00
2023-05-09T05:31:08.807Z,100.00
2023-05-09T05:33:35.273Z,100.00
2023-05-09T05:36:02.392Z,100.00
2023-05-09T05:38:29.349Z,100.00
2023-05-09T05:40:57.298Z,100.00
2023-05-09T05:43:25.295Z,100.00
2023-05-09T05:45:51.832Z,100.00
2023-05-09T05:48:21.891Z,99.90
2023-05-09T05:50:48.291Z,99.67
2023-05-09T05:53:17.536Z,99.47
2023-05-09T05:55:45.835Z,98.97
2023-05-09T05:58:12.613Z,98.84
2023-05-09T06:00:39.898Z,98.69
2023-05-09T06:03:08.583Z,98.35
2023-05-09T06:05:49.631Z,98.25
2023-05-09T06:08:16.136Z,97.88
2023-05-09T06:10:42.521Z,97.82
2023-05-09T06:13:08.977Z,97.45
2023-05-09T06:15:38.401Z,97.14
2023-05-09T06:18:04.944Z,97.32
2023-05-09T06:20:31.442Z,96.89
2023-05-09T06:22:58.230Z,96.18
2023-05-09T06:25:24.945Z,95.88
2023-05-09T06:27:51.328Z,95.64
2023-05-09T06:30:26.282Z,95.91
2023-05-09T06:32:54.336Z,95.91
2023-05-09T06:35:20.828Z,95.54
2023-05-09T06:37:48.780Z,95.04
2023-05-09T06:40:16.557Z,94.92
2023-05-09T06:42:43.079Z,94.70
2023-05-09T06:45:09.988Z,94.23
2023-05-09T06:47:36.510Z,93.52
2023-05-09T06:50:03.644Z,93.51
2023-05-09T06:52:30.194Z,93.76
2023-05-09T06:54:56.561Z,93.79
2023-05-09T06:57:23.177Z,93.67
2023-05-09T06:59:49.579Z,93.23
2023-05-09T07:02:16.201Z,92.99
2023-05-09T07:04:43.189Z,93.02
2023-05-09T07:07:09.936Z,92.55
2023-05-09T07:09:36.861Z,92.50
2023-05-09T07:12:04.074Z,92.27
2023-05-09T07:14:30.908Z,92.18
2023-05-09T07:17:09.869Z,91.94
2023-05-09T07:19:43.644Z,91.52
2023-05-09T07:22:10.026Z,91.70
2023-05-09T07:24:36.461Z,89.20
2023-05-09T07:27:03.768Z,88.78
2023-05-09T07:29:30.159Z,88.60
2023-05-09T07:31:56.567Z,88.10
2023-05-09T07:34:25.180Z,88.00
2023-05-09T07:36:51.650Z,88.79
2023-05-09T07:39:18.068Z,89.27
2023-05-09T07:41:44.457Z,90.13
2023-05-09T07:44:11.015Z,90.30
2023-05-09T07:46:38.423Z,90.24
2023-05-09T07:49:04.833Z,88.89
2023-05-09T07:51:32.081Z,88.66
2023-05-09T07:53:58.470Z,88.42
2023-05-09T07:56:26.327Z,87.28
2023-05-09T07:58:54.960Z,87.90
2023-05-09T08:01:22.067Z,88.03
2023-05-09T08:03:48.600Z,88.55
2023-05-09T08:06:15.527Z,88.23
2023-05-09T08:08:41.907Z,87.67
2023-05-09T08:11:08.345Z,87.10
2023-05-09T08:13:35.050Z,86.94
2023-05-09T08:16:02.201Z,87.25
2023-05-09T08:18:28.631Z,87.32
2023-05-09T08:20:55.236Z,86.36
2023-05-09T08:23:21.698Z,85.87
2023-05-09T08:25:52.238Z,84.86
2023-05-09T08:28:19.064Z,84.43
2023-05-09T08:30:45.434Z,82.37
2023-05-09T08:33:11.835Z,82.63
2023-05-09T08:35:38.307Z,80.60
2023-05-09T08:38:04.909Z,80.67
2023-05-09T08:40:35.897Z,79.26
2023-05-09T08:43:06.013Z,79.75
2023-05-09T08:45:45.319Z,76.90
2023-05-09T08:48:12.940Z,74.92
2023-05-09T08:50:40.214Z,74.95
2023-05-09T08:53:06.976Z,74.25
2023-05-09T08:55:33.396Z,72.30
2023-05-09T08:58:00.629Z,71.63
2023-05-09T09:00:28.338Z,71.90
2023-05-09T09:02:56.980Z,72.48
2023-05-09T09:05:40.073Z,71.73
2023-05-09T09:08:09.314Z,69.82
2023-05-09T09:10:39.168Z,69.82
2023-05-09T09:13:06.079Z,69.41
2023-05-09T09:15:36.956Z,69.73
2023-05-09T09:18:09.780Z,68.90
2023-05-09T09:20:44.849Z,69.40
2023-05-09T09:23:13.649Z,69.00
2023-05-09T09:25:40.118Z,69.14
2023-05-09T09:28:06.663Z,69.23
2023-05-09T09:30:33.242Z,66.49
2023-05-09T09:33:00.224Z,66.11
2023-05-09T09:35:26.644Z,66.08
2023-05-09T09:38:00.446Z,66.02
2023-05-09T09:40:26.867Z,65.15
2023-05-09T09:42:53.262Z,64.98
2023-05-09T09:45:20.407Z,64.89
2023-05-09T09:47:48.482Z,64.09
2023-05-09T09:50:17.751Z,63.81
2023-05-09T09:52:56.075Z,63.14
2023-05-09T09:55:24.191Z,61.82
2023-05-09T09:57:51.475Z,62.65
2023-05-09T10:00:28.395Z,63.10
2023-05-09T10:02:56.866Z,61.79
2023-05-09T10:05:24.307Z,62.20
2023-05-09T10:08:01.904Z,62.30
2023-05-09T10:10:36.041Z,61.24
2023-05-09T10:13:10.656Z,61.28
2023-05-09T10:15:52.253Z,60.98
2023-05-09T10:18:27.263Z,61.08
2023-05-09T10:20:54.923Z,60.83
2023-05-09T10:23:23.982Z,61.13
2023-05-09T10:26:02.080Z,60.48
2023-05-09T10:28:31.936Z,60.63
2023-05-09T10:31:12.045Z,59.94
2023-05-09T10:33:48.876Z,59.67
2023-05-09T10:36:17.412Z,58.74
2023-05-09T10:38:44.769Z,57.91
2023-05-09T10:41:12.150Z,57.77
2023-05-09T10:43:39.812Z,57.23
2023-05-09T10:46:06.994Z,57.38
2023-05-09T10:48:33.942Z,58.35
2023-05-09T10:51:02.186Z,57.96
2023-05-09T10:53:40.396Z,58.45
2023-05-09T10:56:07.178Z,57.27
2023-05-09T10:58:36.229Z,58.16
2023-05-09T11:01:04.501Z,58.38
2023-05-09T11:03:54.415Z,57.46
2023-05-09T11:06:43.873Z,57.25
2023-05-09T11:09:37.117Z,57.18
2023-05-09T11:12:15.937Z,56.59
2023-05-09T11:14:44.686Z,56.77
2023-05-09T11:17:15.039Z,56.69
2023-05-09T11:19:47.598Z,57.51
2023-05-09T11:22:15.121Z,57.34
2023-05-09T11:24:47.131Z,58.21
2023-05-09T11:27:30.990Z,60.00
2023-05-09T11:29:59.322Z,61.33
2023-05-09T11:32:32.179Z,62.44
2023-05-09T11:35:09.402Z,62.62
2023-05-09T11:37:48.257Z,62.25
2023-05-09T11:40:17.286Z,61.85
2023-05-09T11:42:49.235Z,61.67
2023-05-09T11:45:17.375Z,62.01
2023-05-09T11:47:46.106Z,62.58
2023-05-09T11:50:14.407Z,62.64
2023-05-09T11:52:41.804Z,63.47
2023-05-09T11:55:12.535Z,65.28
2023-05-09T11:57:41.064Z,65.41
2023-05-09T12:00:10.258Z,65.83
2023-05-09T12:02:37.559Z,65.96
2023-05-09T12:05:13.024Z,66.50
2023-05-09T12:07:40.448Z,66.56
2023-05-09T12:10:12.670Z,68.12
2023-05-09T12:12:44.518Z,69.79
2023-05-09T12:15:13.227Z,72.37
2023-05-09T12:17:44.176Z,73.76
2023-05-09T12:20:11.088Z,74.99
2023-05-09T12:22:37.717Z,79.46
2023-05-09T12:25:10.054Z,85.45
2023-05-09T12:27:38.690Z,89.36
2023-05-09T12:30:15.882Z,93.58
2023-05-09T12:32:43.507Z,95.83
2023-05-09T12:35:10.605Z,97.19
2023-05-09T12:37:37.560Z,98.47
2023-05-09T12:40:07.065Z,98.68
2023-05-09T12:42:35.152Z,100.00
2023-05-09T12:45:03.046Z,100.00
2023-05-09T12:47:31.600Z,100.00
2023-05-09T12:50:02.836Z,100.00
2023-05-09T12:52:54.056Z,100.00
2023-05-09T12:55:25.245Z,100.00
2023-05-09T12:58:03.166Z,100.00
2023-05-09T13:00:42.119Z,100.00
2023-05-09T13:03:31.353Z,100.00
2023-05-09T13:06:02.043Z,100.00
2023-05-09T13:08:29.424Z,100.00
2023-05-09T13:11:07.785Z,100.00
2023-05-09T13:13:34.717Z,100.00
2023-05-09T13:16:04.109Z,100.00
2023-05-09T13:18:30.695Z,100.00
2023-05-09T13:20:57.151Z,100.00
2023-05-09T13:23:24.052Z,100.00
2023-05-09T13:25:51.343Z,100.00
2023-05-09T13:28:17.738Z,100.00
2023-05-09T13:30:45.639Z,100.00
2023-05-09T13:33:24.671Z,100.00
2023-05-09T13:35:52.624Z,100.00
2023-05-09T13:38:19.044Z,100.00
2023-05-09T13:40:45.710Z,100.00
2023-05-09T13:43:12.091Z,100.00
2023-05-09T13:45:38.755Z,100.00
2023-05-09T13:48:05.346Z,100.00
2023-05-09T13:50:31.738Z,100.00
2023-05-09T13:52:58.537Z,100.00
2023-05-09T13:55:26.875Z,100.00
2023-05-09T13:57:53.374Z,100.00
2023-05-09T14:00:21.210Z,100.00
2023-05-09T14:02:48.141Z,100.00
2023-05-09T14:05:16.898Z,100.00
2023-05-09T14:07:43.504Z,100.00
2023-05-09T14:10:12.093Z,100.00
2023-05-09T14:12:39.919Z,100.00
2023-05-09T14:15:07.671Z,100.00
2023-05-09T14:17:34.164Z,100.00
2023-05-09T14:20:00.857Z,100.00
2023-05-09T14:22:28.101Z,100.00
2023-05-09T14:24:56.455Z,100.00
2023-05-09T14:27:22.968Z,100.00
2023-05-09T14:29:49.557Z,100.00
2023-05-09T14:32:16.023Z,100.00
2023-05-09T14:34:42.450Z,100.00
2023-05-09T14:37:13.576Z,100.00
2023-05-09T14:39:42.473Z,100.00
2023-05-09T14:42:11.233Z,100.00
2023-05-09T14:44:38.495Z,100.00
2023-05-09T14:47:05.043Z,100.00
2023-05-09T14:49:31.886Z,100.00
2023-05-09T14:51:58.310Z,100.00
2023-05-09T14:54:24.899Z,100.00
2023-05-09T14:56:51.705Z,100.00
2023-05-09T14:59:18.169Z,100.00
2023-05-09T15:01:45.553Z,100.00
2023-05-09T15:04:12.098Z,100.00
2023-05-09T15:06:39.524Z,100.00
2023-05-09T15:09:06.141Z,100.00
2023-05-09T15:11:46.259Z,100.00
2023-05-09T15:14:13.749Z,100.00
2023-05-09T15:16:40.496Z,100.00
2023-05-09T15:19:08.226Z,100.00
2023-05-09T15:21:35.040Z,100.00
2023-05-09T15:24:02.201Z,100.00
2023-05-09T15:26:29.125Z,100.00
2023-05-09T15:28:55.500Z,100.00
2023-05-09T15:31:23.326Z,100.00
2023-05-09T15:33:49.752Z,100.00
2023-05-09T15:36:16.348Z,100.00
2023-05-09T15:38:48.134Z,100.00
2023-05-09T15:41:15.262Z,100.00
2023-05-09T15:43:42.175Z,100.00
2023-05-09T15:46:08.880Z,100.00
2023-05-09T15:48:35.495Z,100.00
2023-05-09T15:51:02.527Z,100.00
2023-05-09T15:53:29.293Z,100.00
2023-05-09T15:55:56.882Z,100.00
2023-05-09T15:58:23.449Z,100.00
2023-05-09T16:00:50.018Z,100.00
2023-05-09T16:03:16.700Z,100.00
2023-05-09T16:05:43.962Z,100.00
2023-05-09T16:08:11.012Z,100.00
2023-05-09T16:10:37.430Z,100.00
2023-05-09T16:13:04.371Z,100.00
2023-05-09T16:15:30.797Z,100.00
2023-05-09T16:17:57.268Z,100.00
2023-05-09T16:20:23.693Z,100.00
2023-05-09T16:22:50.119Z,100.00
2023-05-09T16:25:16.662Z,100.00
2023-05-09T16:27:43.141Z,100.00
2023-05-09T16:30:10.183Z,100.00
2023-05-09T16:32:36.813Z,100.00
2023-05-09T16:35:04.110Z,100.00
2023-05-09T16:37:30.515Z,100.00
2023-05-09T16:39:57.860Z,100.00
2023-05-09T16:42:24.228Z,100.00
2023-05-09T16:44:50.923Z,100.00
2023-05-09T16:47:17.302Z,100.00
2023-05-09T16:49:43.744Z,100.00
2023-05-09T16:52:10.158Z,100.00
2023-05-09T16:54:36.530Z,100.00
2023-05-09T16:57:03.217Z,100.00
2023-05-09T16:59:29.667Z,100.00
2023-05-09T17:01:57.567Z,100.00
2023-05-09T17:04:25.177Z,100.00
2023-05-09T17:06:51.981Z,100.00
2023-05-09T17:09:18.582Z,100.00
2023-05-09T17:11:45.044Z,100.00
2023-05-09T17:14:11.440Z,100.00
2023-05-09T17:16:38.287Z,100.00
2023-05-09T17:19:04.992Z,100.00
2023-05-09T17:21:32.065Z,100.00
2023-05-09T17:23:58.543Z,100.00
2023-05-09T17:26:25.741Z,100.00
2023-05-09T17:28:52.147Z,100.00
2023-05-09T17:31:18.806Z,100.00
2023-05-09T17:33:45.373Z,100.00
2023-05-09T17:36:11.764Z,100.00
2023-05-09T17:38:38.249Z,100.00
2023-05-09T17:41:04.870Z,100.00
2023-05-09T17:43:31.859Z,100.00
2023-05-09T17:45:58.803Z,100.00
2023-05-09T17:48:25.416Z,100.00
2023-05-09T17:50:52.598Z,100.00
2023-05-09T17:53:19.105Z,100.00
2023-05-09T17:55:45.649Z,100.00
2023-05-09T17:58:13.887Z,100.00
2023-05-09T18:00:40.712Z,100.00
2023-05-09T18:03:08.846Z,100.00
2023-05-09T18:05:35.299Z,100.00
2023-05-09T18:08:03.367Z,100.00
2023-05-09T18:10:29.990Z,100.00
2023-05-09T18:12:56.882Z,100.00
2023-05-09T18:15:24.417Z,100.00
2023-05-09T18:17:50.954Z,100.00
2023-05-09T18:20:17.868Z,100.00
2023-05-09T18:22:44.503Z,100.00
2023-05-09T18:25:11.296Z,100.00
2023-05-09T18:27:38.225Z,100.00
2023-05-09T18:30:05.036Z,100.00
2023-05-09T18:32:32.185Z,100.00
2023-05-09T18:34:58.650Z,100.00
2023-05-09T18:37:25.481Z,100.00
2023-05-09T18:39:51.891Z,100.00
2023-05-09T18:42:18.375Z,100.00
2023-05-09T18:44:44.874Z,100.00
2023-05-09T18:47:11.926Z,100.00
2023-05-09T18:49:38.777Z,100.00
2023-05-09T18:52:05.159Z,100.00
2023-05-09T18:54:32.109Z,100.00
2023-05-09T18:56:59.005Z,100.00
2023-05-09T18:59:25.450Z,100.00
2023-05-09T19:01:51.919Z,100.00
2023-05-09T19:04:19.341Z,100.00
2023-05-09T19:06:46.598Z,100.00
2023-05-09T19:09:13.016Z,100.00
2023-05-09T19:11:39.395Z,100.00
2023-05-09T19:14:05.841Z,100.00
2023-05-09T19:16:32.392Z,100.00
2023-05-09T19:18:59.057Z,100.00
2023-05-09T19:21:25.538Z,100.00
2023-05-09T19:23:52.361Z,100.00
2023-05-09T19:26:19.776Z,100.00
2023-05-09T19:28:46.837Z,100.00
2023-05-09T19:31:14.730Z,100.00
2023-05-09T19:33:42.702Z,100.00
2023-05-09T19:36:09.187Z,100.00
2023-05-09T19:38:35.893Z,100.00
2023-05-09T19:41:02.358Z,100.00
2023-05-09T19:43:28.806Z,100.00
2023-05-09T19:45:55.247Z,100.00
2023-05-09T19:48:21.756Z,100.00
2023-05-09T19:50:48.182Z,100.00
2023-05-09T19:53:14.829Z,100.00
2023-05-09T19:55:43.695Z,100.00
2023-05-09T19:58:10.130Z,100.00
2023-05-09T20:00:38.644Z,100.00
2023-05-09T20:03:05.071Z,100.00
2023-05-09T20:05:31.503Z,100.00
2023-05-09T20:07:57.910Z,100.00
2023-05-09T20:10:24.338Z,100.00
2023-05-09T20:12:50.854Z,100.00
2023-05-09T20:15:17.676Z,100.00
2023-05-09T20:17:44.511Z,100.00
2023-05-09T20:20:11.550Z,100.00
2023-05-09T20:22:38.052Z,100.00
2023-05-09T20:25:05.165Z,100.00
2023-05-09T20:27:31.661Z,100.00
2023-05-09T20:29:58.054Z,100.00
2023-05-09T20:32:24.545Z,100.00
2023-05-09T20:34:50.964Z,100.00
2023-05-09T20:37:17.382Z,100.00
2023-05-09T20:39:44.034Z,100.00
2023-05-09T20:42:10.677Z,100.00
2023-05-09T20:44:39.095Z,100.00
2023-05-09T20:47:05.795Z,100.00
2023-05-09T20:49:32.286Z,100.00
2023-05-09T20:51:58.647Z,100.00
2023-05-09T20:54:25.788Z,100.00
2023-05-09T20:56:52.208Z,100.00
2023-05-09T20:59:18.697Z,100.00
2023-05-09T21:01:45.199Z,100.00
2023-05-09T21:04:11.624Z,100.00
2023-05-09T21:06:38.582Z,100.00
2023-05-09T21:09:09.267Z,100.00
2023-05-09T21:11:37.117Z,100.00
2023-05-09T21:14:03.862Z,100.00
2023-05-09T21:16:30.675Z,100.00
2023-05-09T21:18:58.520Z,100.00
2023-05-09T21:21:24.963Z,100.00
2023-05-09T21:23:51.382Z,100.00
2023-05-09T21:26:18.338Z,100.00
2023-05-09T21:28:44.718Z,100.00
2023-05-09T21:31:11.689Z,100.00
2023-05-09T21:33:38.481Z,100.00
2023-05-09T21:36:05.047Z,100.00
2023-05-09T21:38:31.464Z,100.00
2023-05-09T21:40:58.276Z,100.00
2023-05-09T21:43:24.663Z,100.00
2023-05-09T21:45:51.043Z,100.00
2023-05-09T21:48:17.583Z,100.00
2023-05-09T21:50:45.891Z,100.00
2023-05-09T21:53:12.945Z,100.00
2023-05-09T21:55:39.329Z,100.00
2023-05-09T21:58:05.766Z,100.00
2023-05-09T22:00:32.136Z,100.00
2023-05-09T22:02:58.965Z,100.00
2023-05-09T22:05:25.526Z,100.00
2023-05-09T22:07:51.920Z,100.00
2023-05-09T22:10:18.980Z,100.00
2023-05-09T22:12:45.833Z,100.00
2023-05-09T22:15:12.713Z,100.00
2023-05-09T22:17:39.607Z,100.00
2023-05-09T22:20:06.990Z,100.00
2023-05-09T22:22:33.904Z,100.00
2023-05-09T22:25:00.415Z,100.00
2023-05-09T22:27:26.789Z,100.00
2023-05-09T22:29:53.691Z,100.00
2023-05-09T22:32:20.111Z,100.00
2023-05-09T22:34:48.070Z,100.00
2023-05-09T22:37:15.349Z,100.00
2023-05-09T22:39:45.575Z,100.00
2023-05-09T22:42:12.089Z,100.00
2023-05-09T22:44:39.304Z,100.00
2023-05-09T22:47:07.665Z,100.00
2023-05-09T22:49:34.110Z,100.00
2023-05-09T22:52:00.857Z,100.00
2023-05-09T22:54:27.279Z,100.00
2023-05-09T22:56:53.765Z,100.00
2023-05-09T22:59:20.328Z,100.00
2023-05-09T23:01:47.786Z,100.00
2023-05-09T23:04:14.182Z,100.00
2023-05-09T23:06:40.708Z,100.00
2023-05-09T23:09:07.758Z,100.00
2023-05-09T23:11:34.109Z,100.00
2023-05-09T23:14:00.526Z,100.00
2023-05-09T23:16:27.142Z,100.00
2023-05-09T23:18:54.250Z,100.00
2023-05-09T23:21:20.636Z,100.00
2023-05-09T23:23:47.200Z,100.00
2023-05-09T23:26:13.860Z,100.00
2023-05-09T23:28:40.395Z,100.00
2023-05-09T23:31:06.847Z,100.00
2023-05-09T23:33:33.383Z,100.00
2023-05-09T23:35:59.877Z,100.00
2023-05-09T23:38:26.344Z,100.00
2023-05-09T23:40:53.769Z,100.00
2023-05-09T23:43:20.154Z,100.00
2023-05-09T23:45:46.732Z,100.00
2023-05-09T23:48:13.130Z,100.00
2023-05-09T23:50:39.554Z,100.00
2023-05-09T23:53:06.403Z,100.00
2023-05-09T23:55:33.213Z,100.00
2023-05-09T23:58:00.631Z,100.00
